Time;durP1;ratioP1;P1;durP2;ratioP2;P2;SDS_P1;SDS_P2;PMS_P1;PMS_P2;Temp;Humidity;BMP_temperature;BMP_pressure;BME280_temperature;BME280_humidity;BME280_pressure;Samples;Min_cycle;Max_cycle;Signal;HPM_P1;HPM_P2
2023/08/05 00:01:22;;;;;;;;;;;;;;;15.09;100.00;95399.69;10528651;28;2095;-82
2023/08/05 00:06:27;;;;;;;;;;;;;;;15.07;100.00;95413.50;10524570;28;1992;-82
2023/08/05 00:11:34;;;;;;;;;;;;;;;15.10;100.00;95412.09;10518940;28;1972;-82
2023/08/05 00:16:43;;;;;;;;;;;;;;;15.22;100.00;95408.81;10510559;28;1944;-82
2023/08/05 00:21:53;;;;;;;;;;;;;;;15.24;100.00;95414.72;10526218;28;2060;-80
2023/08/05 00:27:06;;;;;;;;;;;;;;;15.22;100.00;95419.66;10512931;28;2129;-80
2023/08/05 00:32:17;;;;;;;;;;;;;;;15.21;100.00;95418.84;10528553;28;2031;-81
2023/08/05 00:37:21;;;;;;;;;;;;;;;15.20;100.00;95419.13;10521452;28;2034;-81
2023/08/05 00:42:31;;;;;;;;;;;;;;;15.19;100.00;95410.22;10524339;28;4729;-81
2023/08/05 00:47:39;;;;;;;;;;;;;;;15.18;100.00;95415.97;10508565;28;2490;-81
2023/08/05 00:52:45;;;;;;;;;;;;;;;15.09;100.00;95408.59;10523312;28;2114;-81
2023/08/05 00:57:54;;;;;;;;;;;;;;;15.10;100.00;95410.19;10509326;28;2179;-81
2023/08/05 01:03:05;;;;;;;;;;;;;;;15.13;100.00;95398.72;10524969;28;1849;-81
2023/08/05 01:08:18;;;;;;;;;;;;;;;15.10;100.00;95404.78;10524390;28;1896;-81
2023/08/05 01:13:24;;;;;;;;;;;;;;;14.96;100.00;95404.06;10508793;28;2144;-79
2023/08/05 01:18:28;;;;;;;;;;;;;;;14.99;100.00;95398.03;10528491;28;1955;-80
2023/08/05 01:23:40;;;;;;;;;;;;;;;14.96;100.00;95385.13;10498413;28;1892;-81
2023/08/05 01:28:48;;;;;;;;;;;;;;;14.86;100.00;95377.25;10526452;28;1910;-81
2023/08/05 01:33:57;;;;;;;;;;;;;;;14.80;100.00;95362.25;10515498;28;1979;-81
2023/08/05 01:39:03;;;;;;;;;;;;;;;14.81;100.00;95347.63;10517103;28;2005;-80
2023/08/05 01:44:08;;;;;;;;;;;;;;;14.79;100.00;95331.69;10500009;28;4590;-80
2023/08/05 01:49:14;;;;;;;;;;;;;;;14.71;100.00;95334.38;10522228;28;1857;-80
2023/08/05 01:54:18;;;;;;;;;;;;;;;14.68;100.00;95343.88;10500972;28;1978;-80
2023/08/05 01:59:21;;;;;;;;;;;;;;;14.68;100.00;95335.78;10518451;28;1892;-80
2023/08/05 02:04:26;;;;;;;;;;;;;;;14.65;100.00;95333.69;10514143;28;1877;-80
2023/08/05 02:09:30;;;;;;;;;;;;;;;14.55;100.00;95332.03;10500618;28;2116;-82
2023/08/05 02:14:37;;;;;;;;;;;;;;;14.59;100.00;95313.31;10530615;28;1912;-82
2023/08/05 02:19:42;;;;;;;;;;;;;;;14.55;100.00;95310.41;10526836;28;2091;-79
2023/08/05 02:24:46;;;;;;;;;;;;;;;14.48;100.00;95337.09;10522379;28;2091;-81
2023/08/05 02:29:51;;;;;;;;;;;;;;;14.53;100.00;95350.50;10513676;28;1932;-81
2023/08/05 02:34:58;;;;;;;;;;;;;;;14.53;100.00;95355.91;10495002;28;2416;-81
2023/08/05 02:40:18;;;;;;;;;;;;;;;14.53;100.00;95353.19;10502088;28;2428;-81
2023/08/05 02:45:22;;;;;;;;;;;;;;;14.67;100.00;95368.56;10519455;28;5069;-81
2023/08/05 02:50:26;;;;;;;;;;;;;;;14.56;100.00;95371.50;10502471;28;1883;-81
2023/08/05 02:55:41;;;;;;;;;;;;;;;14.44;100.00;95360.44;10514429;28;1963;-80
2023/08/05 03:00:46;;;;;;;;;;;;;;;14.45;100.00;95362.03;10515430;28;1850;-80
2023/08/05 03:05:58;;;;;;;;;;;;;;;14.40;100.00;95364.06;10528626;28;1839;-80
2023/08/05 03:11:04;;;;;;;;;;;;;;;14.34;100.00;95360.66;10526898;28;2001;-81
2023/08/05 03:16:13;;;;;;;;;;;;;;;14.30;100.00;95392.13;10518672;28;1865;-81
2023/08/05 03:21:16;;;;;;;;;;;;;;;14.36;100.00;95390.09;10524820;28;2031;-81
2023/08/05 03:26:27;;;;;;;;;;;;;;;14.31;100.00;95407.22;10501789;28;2060;-79
2023/08/05 03:31:34;;;;;;;;;;;;;;;14.05;100.00;95413.22;10517728;28;6899;-81
2023/08/05 03:36:40;;;;;;;;;;;;;;;13.72;100.00;95409.06;10518452;28;5803;-80
2023/08/05 03:41:45;;;;;;;;;;;;;;;13.60;100.00;95400.69;10519375;28;5491;-80
2023/08/05 03:46:53;;;;;;;;;;;;;;;13.55;100.00;95398.06;10521314;28;2039;-81
2023/08/05 03:51:57;;;;;;;;;;;;;;;13.51;100.00;95400.59;10500623;28;3836;-81
2023/08/05 03:57:11;;;;;;;;;;;;;;;13.56;100.00;95413.22;10524858;28;1919;-81
2023/08/05 04:02:17;;;;;;;;;;;;;;;13.50;100.00;95407.09;10529730;28;1936;-79
2023/08/05 04:07:22;;;;;;;;;;;;;;;13.45;100.00;95421.50;10520708;28;5557;-82
2023/08/05 04:12:31;;;;;;;;;;;;;;;13.42;100.00;95419.41;10529442;28;1992;-83
2023/08/05 04:17:38;;;;;;;;;;;;;;;13.48;100.00;95431.69;10520193;28;1937;-80
2023/08/05 04:22:48;;;;;;;;;;;;;;;13.44;100.00;95428.00;10522423;28;2130;-81
2023/08/05 04:27:52;;;;;;;;;;;;;;;13.40;100.00;95418.88;10524611;28;1928;-81
2023/08/05 04:32:57;;;;;;;;;;;;;;;13.44;100.00;95414.50;10530557;28;1983;-80
2023/08/05 04:38:00;;;;;;;;;;;;;;;13.59;100.00;95420.69;10521636;28;1967;-79
2023/08/05 04:43:05;;;;;;;;;;;;;;;13.68;100.00;95419.69;10522588;28;6409;-81
2023/08/05 04:48:10;;;;;;;;;;;;;;;13.82;100.00;95414.28;10524304;28;1888;-80
2023/08/05 04:53:13;;;;;;;;;;;;;;;13.80;100.00;95416.47;10514461;28;1905;-81
2023/08/05 04:58:20;;;;;;;;;;;;;;;13.72;100.00;95403.69;10524092;28;1876;-83
2023/08/05 05:03:25;;;;;;;;;;;;;;;13.78;100.00;95392.47;10504085;28;2269;-82
2023/08/05 05:08:31;;;;;;;;;;;;;;;13.83;100.00;95407.75;10527593;28;1924;-81
2023/08/05 05:13:36;;;;;;;;;;;;;;;13.88;100.00;95412.28;10520599;28;2037;-82
2023/08/05 05:18:40;;;;;;;;;;;;;;;13.90;100.00;95404.66;10517956;28;1841;-81
2023/08/05 05:23:44;;;;;;;;;;;;;;;13.88;100.00;95404.97;10522109;28;1953;-81
2023/08/05 05:28:53;;;;;;;;;;;;;;;14.00;100.00;95410.66;10527895;28;1852;-82
2023/08/05 05:34:01;;;;;;;;;;;;;;;14.18;100.00;95413.47;10519898;28;1918;-82
2023/08/05 05:39:04;;;;;;;;;;;;;;;14.20;100.00;95401.28;10524118;28;2673;-82
2023/08/05 05:44:16;;;;;;;;;;;;;;;14.09;100.00;95404.50;10525836;28;5456;-82
2023/08/05 05:49:25;;;;;;;;;;;;;;;14.34;100.00;95412.03;10513196;28;1913;-82
2023/08/05 05:54:29;;;;;;;;;;;;;;;14.40;100.00;95432.44;10527604;28;1985;-82
2023/08/05 05:59:39;;;;;;;;;;;;;;;14.47;100.00;95435.56;10526477;28;1897;-82
2023/08/05 06:04:47;;;;;;;;;;;;;;;14.47;100.00;95440.97;10521661;28;1961;-82
2023/08/05 06:09:53;;;;;;;;;;;;;;;14.48;100.00;95425.53;10525327;28;2025;-82
2023/08/05 06:14:57;;;;;;;;;;;;;;;14.41;100.00;95423.22;10519831;28;1981;-82
2023/08/05 06:20:00;;;;;;;;;;;;;;;14.39;100.00;95422.75;10524355;28;2020;-80
2023/08/05 06:25:05;;;;;;;;;;;;;;;14.40;100.00;95431.66;10527459;28;2030;-81
2023/08/05 06:30:11;;;;;;;;;;;;;;;14.38;100.00;95433.84;10519638;28;2022;-80
2023/08/05 06:35:15;;;;;;;;;;;;;;;14.62;100.00;95455.22;10522026;28;2481;-81
2023/08/05 06:40:18;;;;;;;;;;;;;;;14.64;100.00;95456.53;10526777;28;4569;-80
2023/08/05 06:45:23;;;;;;;;;;;;;;;14.82;100.00;95452.03;10507651;28;1857;-81
2023/08/05 06:50:28;;;;;;;;;;;;;;;14.73;100.00;95448.47;10529042;28;1837;-80
2023/08/05 06:55:33;;;;;;;;;;;;;;;15.02;100.00;95429.91;10498361;28;1918;-79
2023/08/05 07:00:37;;;;;;;;;;;;;;;14.92;100.00;95429.34;10511266;28;1974;-79
2023/08/05 07:05:41;;;;;;;;;;;;;;;15.07;100.00;95445.97;10501603;28;2005;-79
2023/08/05 07:10:46;;;;;;;;;;;;;;;15.08;100.00;95444.91;10523284;28;1899;-79
2023/08/05 07:15:52;;;;;;;;;;;;;;;15.18;100.00;95449.25;10526061;28;2045;-79
2023/08/05 07:20:57;;;;;;;;;;;;;;;15.23;100.00;95445.59;10527990;28;1884;-79
2023/08/05 07:26:03;;;;;;;;;;;;;;;15.27;100.00;95435.72;10524430;28;1896;-80
2023/08/05 07:31:08;;;;;;;;;;;;;;;15.32;100.00;95416.66;10515804;28;2306;-79
2023/08/05 07:36:15;;;;;;;;;;;;;;;15.44;100.00;95425.00;10529539;28;2115;-79
2023/08/05 07:41:23;;;;;;;;;;;;;;;15.59;100.00;95430.00;10528986;28;4670;-80
2023/08/05 07:46:31;;;;;;;;;;;;;;;15.49;100.00;95427.56;10534597;28;1829;-79
2023/08/05 07:51:36;;;;;;;;;;;;;;;15.44;100.00;95449.38;10523501;28;1854;-79
2023/08/05 07:56:42;;;;;;;;;;;;;;;15.54;100.00;95440.97;10502140;28;2060;-82
2023/08/05 08:01:48;;;;;;;;;;;;;;;15.67;100.00;95444.72;10526180;28;1873;-78
2023/08/05 08:06:55;;;;;;;;;;;;;;;15.60;100.00;95442.44;10532423;28;1992;-78
2023/08/05 08:12:01;;;;;;;;;;;;;;;15.47;100.00;95439.84;10529981;28;1869;-78
2023/08/05 08:17:06;;;;;;;;;;;;;;;15.52;100.00;95440.47;10527208;28;1917;-78
2023/08/05 08:22:12;;;;;;;;;;;;;;;15.68;100.00;95443.59;10525293;28;1884;-79
2023/08/05 08:27:19;;;;;;;;;;;;;;;15.64;100.00;95440.72;10516824;28;2388;-78
2023/08/05 08:32:24;;;;;;;;;;;;;;;16.07;100.00;95431.09;10515864;28;1985;-79
2023/08/05 08:37:29;;;;;;;;;;;;;;;16.41;100.00;95414.88;10503496;28;2019;-79
2023/08/05 08:42:36;;;;;;;;;;;;;;;16.72;100.00;95420.13;10505696;28;4560;-79
2023/08/05 08:47:45;;;;;;;;;;;;;;;16.79;100.00;95414.22;10526859;28;1896;-78
2023/08/05 08:52:50;;;;;;;;;;;;;;;16.93;100.00;95420.28;10524676;28;1906;-78
2023/08/05 08:58:01;;;;;;;;;;;;;;;17.17;100.00;95413.50;10525770;28;1865;-78
2023/08/05 09:03:20;;;;;;;;;;;;;;;17.68;100.00;95395.41;10521478;28;2036;-78
2023/08/05 09:08:23;;;;;;;;;;;;;;;18.21;100.00;95381.19;10525179;28;1888;-79
2023/08/05 09:13:34;;;;;;;;;;;;;;;17.94;100.00;95389.84;10518564;28;1918;-79
2023/08/05 09:18:49;;;;;;;;;;;;;;;17.26;100.00;95384.41;10510041;28;2003;-79
2023/08/05 09:23:55;;;;;;;;;;;;;;;17.36;100.00;95391.38;10513504;28;2424;-79
2023/08/05 09:29:04;;;;;;;;;;;;;;;16.97;100.00;95404.13;10518238;28;1892;-78
2023/08/05 09:34:09;;;;;;;;;;;;;;;16.59;100.00;95393.16;10529215;28;1961;-78
2023/08/05 09:39:16;;;;;;;;;;;;;;;16.57;100.00;95404.31;10528479;28;1858;-79
2023/08/05 09:44:25;;;;;;;;;;;;;;;16.08;100.00;95400.94;10532681;28;1987;-78
2023/08/05 09:55:05;;;;;;;;;;;;;;;15.92;100.00;95418.81;10527402;28;1977;-80
2023/08/05 10:00:12;;;;;;;;;;;;;;;15.93;100.00;95421.19;10507921;28;2111;-82
2023/08/05 10:05:16;;;;;;;;;;;;;;;15.77;100.00;95416.53;10524379;28;2063;-83
2023/08/05 10:10:21;;;;;;;;;;;;;;;15.83;100.00;95426.09;10516438;28;1896;-83
2023/08/05 10:15:30;;;;;;;;;;;;;;;16.23;100.00;95426.03;10512962;28;1964;-81
2023/08/05 10:20:38;;;;;;;;;;;;;;;16.26;100.00;95433.53;10522205;28;1813;-81
2023/08/05 10:25:54;;;;;;;;;;;;;;;16.17;100.00;95418.03;10524282;28;1880;-81
2023/08/05 10:31:02;;;;;;;;;;;;;;;16.81;100.00;95408.50;10520818;28;2278;-82
2023/08/05 10:36:07;;;;;;;;;;;;;;;17.50;100.00;95392.00;10506755;28;1965;-80
2023/08/05 10:41:12;;;;;;;;;;;;;;;17.98;100.00;95383.44;10511407;28;4557;-80
2023/08/05 10:46:18;;;;;;;;;;;;;;;18.34;100.00;95369.25;10518145;28;1872;-80
2023/08/05 10:51:29;;;;;;;;;;;;;;;18.07;100.00;95353.47;10523645;28;1884;-80
2023/08/05 10:56:38;;;;;;;;;;;;;;;18.34;100.00;95350.19;10529243;28;2281;-80
2023/08/05 11:01:41;;;;;;;;;;;;;;;18.27;100.00;95336.34;10522498;28;1870;-79
2023/08/05 11:06:45;;;;;;;;;;;;;;;18.23;100.00;95327.25;10517024;28;1979;-78
2023/08/05 11:11:50;;;;;;;;;;;;;;;18.53;100.00;95322.50;10515376;28;2012;-80
2023/08/05 11:16:56;;;;;;;;;;;;;;;19.59;100.00;95304.63;10523252;28;1961;-79
2023/08/05 11:22:01;;;;;;;;;;;;;;;20.19;100.00;95286.56;10509110;28;1921;-79
2023/08/05 11:27:07;;;;;;;;;;;;;;;20.61;100.00;95286.16;10496292;28;1755;-79
2023/08/05 11:32:14;;;;;;;;;;;;;;;20.52;100.00;95267.22;10525256;28;1884;-78
2023/08/05 11:37:20;;;;;;;;;;;;;;;20.47;100.00;95276.47;10490402;28;2059;-79
2023/08/05 11:42:32;;;;;;;;;;;;;;;20.18;100.00;95269.41;10487872;28;4566;-77
2023/08/05 11:47:37;;;;;;;;;;;;;;;20.14;100.00;95256.78;10523876;28;1870;-78
2023/08/05 11:52:41;;;;;;;;;;;;;;;20.66;100.00;95258.63;10521033;28;2127;-78
2023/08/05 11:57:46;;;;;;;;;;;;;;;20.88;100.00;95247.09;10533913;28;2174;-80
2023/08/05 12:02:52;;;;;;;;;;;;;;;21.62;100.00;95230.91;10516006;28;1906;-77
2023/08/05 12:07:56;;;;;;;;;;;;;;;21.53;100.00;95228.38;10504155;28;1884;-78
2023/08/05 12:13:02;;;;;;;;;;;;;;;21.13;100.00;95214.13;10517290;28;2578;-79
2023/08/05 12:18:08;;;;;;;;;;;;;;;20.45;100.00;95215.97;10531119;28;2043;-78
2023/08/05 12:23:15;;;;;;;;;;;;;;;20.35;100.00;95210.19;10533110;28;2081;-79
2023/08/05 12:28:20;;;;;;;;;;;;;;;19.94;100.00;95204.81;10532534;28;1871;-79
2023/08/05 12:33:24;;;;;;;;;;;;;;;19.78;100.00;95211.31;10524204;28;2342;-79
2023/08/05 12:38:30;;;;;;;;;;;;;;;18.44;100.00;95251.00;10529275;28;1834;-78
2023/08/05 12:43:38;;;;;;;;;;;;;;;16.16;100.00;95291.72;10530421;28;4540;-83
2023/08/05 12:48:45;;;;;;;;;;;;;;;15.79;100.00;95308.63;10525172;28;2038;-83
2023/08/05 12:53:49;;;;;;;;;;;;;;;15.36;100.00;95325.56;10521912;28;1902;-84
2023/08/05 12:58:53;;;;;;;;;;;;;;;15.44;100.00;95321.28;10524885;28;1882;-83
2023/08/05 13:03:57;;;;;;;;;;;;;;;15.93;100.00;95315.47;10529291;28;1952;-83
2023/08/05 13:09:02;;;;;;;;;;;;;;;16.29;100.00;95319.00;10525988;28;2386;-83
2023/08/05 13:14:08;;;;;;;;;;;;;;;16.21;100.00;95318.66;10527326;28;2012;-81
2023/08/05 13:19:14;;;;;;;;;;;;;;;16.21;100.00;95315.16;10516687;28;1929;-80
2023/08/05 13:24:19;;;;;;;;;;;;;;;16.10;100.00;95317.41;10522346;28;2204;-81
2023/08/05 13:29:22;;;;;;;;;;;;;;;16.30;100.00;95309.72;10528396;28;1968;-82
2023/08/05 13:34:27;;;;;;;;;;;;;;;16.36;100.00;95314.66;10521914;28;1988;-80
2023/08/05 13:39:32;;;;;;;;;;;;;;;16.68;100.00;95310.63;10498443;28;1912;-79
2023/08/05 13:44:46;;;;;;;;;;;;;;;16.62;100.00;95295.63;10523576;28;1903;-80
2023/08/05 13:49:50;;;;;;;;;;;;;;;16.62;100.00;95279.34;10523633;28;2025;-82
2023/08/05 13:54:55;;;;;;;;;;;;;;;16.56;100.00;95275.22;10530603;28;1910;-80
2023/08/05 13:59:59;;;;;;;;;;;;;;;16.63;100.00;95286.34;10522099;28;1889;-82
2023/08/05 14:05:06;;;;;;;;;;;;;;;16.83;100.00;95284.09;10524318;28;2363;-81
2023/08/05 14:10:10;;;;;;;;;;;;;;;17.13;100.00;95279.50;10521077;28;1920;-82
2023/08/05 14:15:13;;;;;;;;;;;;;;;17.00;100.00;95273.97;10516836;28;1910;-82
2023/08/05 14:20:19;;;;;;;;;;;;;;;17.73;100.00;95275.66;10500242;28;2089;-82
2023/08/05 14:25:24;;;;;;;;;;;;;;;17.55;100.00;95274.94;10526006;28;2227;-83
2023/08/05 14:30:29;;;;;;;;;;;;;;;17.68;100.00;95252.13;10517044;28;2138;-83
2023/08/05 14:35:34;;;;;;;;;;;;;;;17.53;100.00;95264.41;10500451;28;2073;-81
2023/08/05 14:40:38;;;;;;;;;;;;;;;17.38;100.00;95266.91;10520717;28;4526;-84
2023/08/05 14:45:42;;;;;;;;;;;;;;;16.95;100.00;95270.63;10502715;28;2044;-82
2023/08/05 14:50:49;;;;;;;;;;;;;;;16.99;100.00;95277.81;10505572;28;1981;-82
2023/08/05 14:55:53;;;;;;;;;;;;;;;17.08;100.00;95276.97;10525765;28;1969;-81
2023/08/05 15:00:56;;;;;;;;;;;;;;;17.10;100.00;95280.94;10525309;28;1869;-82
2023/08/05 15:06:03;;;;;;;;;;;;;;;17.11;100.00;95290.66;10522691;28;2032;-81
2023/08/05 15:11:07;;;;;;;;;;;;;;;17.14;100.00;95284.59;10514461;28;2024;-83
2023/08/05 15:16:13;;;;;;;;;;;;;;;17.37;100.00;95284.31;10520615;28;2040;-81
2023/08/05 15:21:20;;;;;;;;;;;;;;;17.39;100.00;95269.28;10516636;28;1942;-81
2023/08/05 15:26:29;;;;;;;;;;;;;;;17.40;100.00;95276.31;10517352;28;1876;-80
2023/08/05 15:31:33;;;;;;;;;;;;;;;17.30;100.00;95276.69;10517534;28;2032;-81
2023/08/05 15:36:41;;;;;;;;;;;;;;;17.25;100.00;95268.75;10501164;28;1994;-81
2023/08/05 15:41:45;;;;;;;;;;;;;;;17.29;100.00;95256.88;10515376;28;4494;-81
2023/08/05 15:46:49;;;;;;;;;;;;;;;17.26;100.00;95254.03;10505307;28;1975;-81
2023/08/05 15:51:58;;;;;;;;;;;;;;;17.38;100.00;95239.75;10523301;28;1829;-82
2023/08/05 15:57:03;;;;;;;;;;;;;;;17.38;100.00;95218.00;10508481;28;2417;-81
2023/08/05 16:02:13;;;;;;;;;;;;;;;17.25;100.00;95208.97;10537025;28;1898;-81
2023/08/05 16:07:19;;;;;;;;;;;;;;;17.21;100.00;95203.41;10531508;28;1852;-81
2023/08/05 16:12:31;;;;;;;;;;;;;;;17.36;100.00;95206.66;10494630;28;1919;-82
2023/08/05 16:17:35;;;;;;;;;;;;;;;17.20;100.00;95215.41;10512455;28;1951;-82
2023/08/05 16:22:38;;;;;;;;;;;;;;;17.01;100.00;95209.59;10523847;28;1858;-82
2023/08/05 16:27:48;;;;;;;;;;;;;;;16.98;100.00;95205.59;10535354;28;1837;-82
2023/08/05 16:32:54;;;;;;;;;;;;;;;16.93;100.00;95207.72;10555227;28;1896;-82
2023/08/05 16:43:16;;;;;;;;;;;;;;;16.99;100.00;95220.00;10529130;28;4556;-82
2023/08/05 16:48:20;;;;;;;;;;;;;;;17.00;100.00;95211.53;10530648;28;1904;-81
2023/08/05 16:53:24;;;;;;;;;;;;;;;17.02;100.00;95213.91;10506178;28;1977;-82
2023/08/05 16:58:31;;;;;;;;;;;;;;;17.06;100.00;95223.00;10500751;28;2000;-81
2023/08/05 17:03:37;;;;;;;;;;;;;;;17.02;100.00;95220.13;10529864;28;2083;-82
2023/08/05 17:08:43;;;;;;;;;;;;;;;17.01;100.00;95220.47;10535699;28;1928;-83
2023/08/05 17:13:46;;;;;;;;;;;;;;;17.04;100.00;95211.66;10536739;28;1941;-82
2023/08/05 17:18:51;;;;;;;;;;;;;;;16.95;100.00;95210.91;10524639;28;1914;-83
2023/08/05 17:24:03;;;;;;;;;;;;;;;17.00;100.00;95216.94;10527816;28;1885;-83
2023/08/05 17:29:09;;;;;;;;;;;;;;;16.83;100.00;95213.53;10531194;28;1902;-82
2023/08/05 17:34:15;;;;;;;;;;;;;;;16.67;100.00;95203.19;10526312;28;1854;-82
2023/08/05 17:39:23;;;;;;;;;;;;;;;16.53;100.00;95199.88;10524059;28;2128;-81
2023/08/05 17:44:38;;;;;;;;;;;;;;;16.37;100.00;95193.41;10527500;28;4532;-81
2023/08/05 17:49:54;;;;;;;;;;;;;;;16.24;100.00;95197.13;10541150;27;2209;-82
2023/08/05 17:55:09;;;;;;;;;;;;;;;16.12;100.00;95206.72;10528037;28;1993;-82
2023/08/05 18:00:13;;;;;;;;;;;;;;;16.06;100.00;95213.41;10542550;28;1843;-81
2023/08/05 18:05:19;;;;;;;;;;;;;;;15.92;100.00;95197.34;10525360;28;2146;-81
2023/08/05 18:10:26;;;;;;;;;;;;;;;15.90;100.00;95209.59;10523718;28;1893;-82
2023/08/05 18:15:31;;;;;;;;;;;;;;;15.76;100.00;95211.69;10525997;28;1910;-83
2023/08/05 18:20:35;;;;;;;;;;;;;;;15.68;100.00;95216.78;10522785;28;1975;-82
2023/08/05 18:25:38;;;;;;;;;;;;;;;15.63;100.00;95210.75;10520674;28;1985;-85
2023/08/05 18:30:42;;;;;;;;;;;;;;;15.59;100.00;95205.16;10521448;28;1894;-82
2023/08/05 18:35:47;;;;;;;;;;;;;;;15.49;100.00;95193.81;10522351;28;1988;-83
2023/08/05 18:40:51;;;;;;;;;;;;;;;15.43;100.00;95189.69;10521527;28;4505;-83
2023/08/05 18:45:54;;;;;;;;;;;;;;;15.34;100.00;95186.97;10538296;28;2084;-84
2023/08/05 18:51:00;;;;;;;;;;;;;;;15.28;100.00;95182.84;10523439;28;1961;-83
2023/08/05 18:56:04;;;;;;;;;;;;;;;15.22;100.00;95200.34;10529661;28;1910;-82
2023/08/05 19:01:09;;;;;;;;;;;;;;;15.19;100.00;95198.25;10539930;28;1902;-82
2023/08/05 19:06:19;;;;;;;;;;;;;;;15.22;100.00;95203.06;10523634;28;2004;-83
2023/08/05 19:11:22;;;;;;;;;;;;;;;15.18;100.00;95208.28;10523404;28;2031;-82
2023/08/05 19:16:27;;;;;;;;;;;;;;;15.25;100.00;95205.91;10535300;28;1927;-83
2023/08/05 19:21:30;;;;;;;;;;;;;;;15.29;100.00;95204.16;10521517;28;2014;-82
2023/08/05 19:26:40;;;;;;;;;;;;;;;15.28;100.00;95201.78;10516489;28;1909;-81
2023/08/05 19:31:56;;;;;;;;;;;;;;;15.35;100.00;95213.72;10522860;28;1947;-82
2023/08/05 19:37:02;;;;;;;;;;;;;;;15.31;100.00;95211.97;10519933;28;1930;-81
2023/08/05 19:47:26;;;;;;;;;;;;;;;15.22;100.00;95203.06;10532596;28;1837;-82
2023/08/05 19:52:36;;;;;;;;;;;;;;;15.21;100.00;95206.88;10539363;28;1888;-82
2023/08/05 19:57:42;;;;;;;;;;;;;;;15.13;100.00;95205.72;10559597;28;1888;-81
2023/08/05 20:02:47;;;;;;;;;;;;;;;14.99;100.00;95192.31;10537986;28;2058;-82
2023/08/05 20:08:01;;;;;;;;;;;;;;;15.01;100.00;95186.59;10528458;28;2002;-82
2023/08/05 20:13:04;;;;;;;;;;;;;;;14.91;100.00;95182.28;10533976;28;1909;-80
2023/08/05 20:18:21;;;;;;;;;;;;;;;14.92;100.00;95183.88;10535230;28;1981;-82
2023/08/05 20:23:27;;;;;;;;;;;;;;;14.86;100.00;95171.59;10506918;28;1900;-80
2023/08/05 20:28:31;;;;;;;;;;;;;;;14.78;100.00;95170.47;10527642;28;1941;-81
2023/08/05 20:33:37;;;;;;;;;;;;;;;14.72;100.00;95163.63;10523858;28;1857;-80
2023/08/05 20:38:42;;;;;;;;;;;;;;;14.71;100.00;95169.34;10506871;28;2497;-81
2023/08/05 20:43:46;;;;;;;;;;;;;;;14.74;100.00;95157.88;10528917;28;4529;-81
2023/08/05 20:48:57;;;;;;;;;;;;;;;14.77;100.00;95158.06;10508251;28;2024;-80
2023/08/05 20:54:04;;;;;;;;;;;;;;;14.72;100.00;95149.31;10525249;28;1914;-78
2023/08/05 20:59:08;;;;;;;;;;;;;;;14.79;100.00;95145.00;10522906;28;1975;-80
2023/08/05 21:04:11;;;;;;;;;;;;;;;14.82;100.00;95143.56;10526012;28;1892;-80
2023/08/05 21:09:15;;;;;;;;;;;;;;;14.84;100.00;95146.78;10532445;28;1967;-80
2023/08/05 21:14:18;;;;;;;;;;;;;;;14.88;100.00;95150.44;10529269;28;1865;-80
2023/08/05 21:19:31;;;;;;;;;;;;;;;14.88;100.00;95147.72;10522798;28;2088;-80
2023/08/05 21:24:36;;;;;;;;;;;;;;;14.95;100.00;95147.25;10525994;28;2024;-81
2023/08/05 21:29:40;;;;;;;;;;;;;;;15.01;100.00;95141.38;10527104;28;1890;-81
2023/08/05 21:34:50;;;;;;;;;;;;;;;15.01;100.00;95149.50;10518884;28;2422;-82
2023/08/05 21:39:54;;;;;;;;;;;;;;;15.07;100.00;95150.13;10525686;28;4568;-81
2023/08/05 21:44:59;;;;;;;;;;;;;;;15.04;100.00;95139.97;10524636;28;2071;-81
2023/08/05 21:50:04;;;;;;;;;;;;;;;15.04;100.00;95143.47;10525078;28;1865;-81
2023/08/05 21:55:10;;;;;;;;;;;;;;;15.08;100.00;95141.72;10527539;28;1952;-80
2023/08/05 22:00:19;;;;;;;;;;;;;;;15.00;100.00;95144.41;10527952;28;1917;-81
2023/08/05 22:05:22;;;;;;;;;;;;;;;15.03;100.00;95150.00;10507966;28;1953;-81
2023/08/05 22:10:26;;;;;;;;;;;;;;;15.12;100.00;95148.09;10524529;28;1858;-82
2023/08/05 22:15:33;;;;;;;;;;;;;;;15.14;100.00;95159.41;10518124;28;2050;-82
2023/08/05 22:20:41;;;;;;;;;;;;;;;15.08;100.00;95152.56;10522266;28;1945;-81
2023/08/05 22:25:45;;;;;;;;;;;;;;;15.01;100.00;95141.38;10521732;28;2138;-81
2023/08/05 22:30:49;;;;;;;;;;;;;;;15.02;100.00;95137.56;10520940;28;2281;-81
2023/08/05 22:35:57;;;;;;;;;;;;;;;14.98;100.00;95133.09;10524961;28;2107;-81
2023/08/05 22:41:06;;;;;;;;;;;;;;;14.89;100.00;95125.00;10529874;28;4660;-82
2023/08/05 22:46:15;;;;;;;;;;;;;;;14.81;100.00;95115.72;10529647;28;1872;-83
2023/08/05 22:51:18;;;;;;;;;;;;;;;14.76;100.00;95096.97;10531917;28;1885;-81
2023/08/05 22:56:31;;;;;;;;;;;;;;;14.71;100.00;95093.59;10528744;28;2041;-81
2023/08/05 23:01:38;;;;;;;;;;;;;;;14.70;100.00;95086.59;10530745;28;1881;-84
2023/08/05 23:06:42;;;;;;;;;;;;;;;14.68;100.00;95080.69;10526207;28;2091;-82
2023/08/05 23:11:48;;;;;;;;;;;;;;;14.66;100.00;95074.81;10525105;28;1876;-82
2023/08/05 23:16:51;;;;;;;;;;;;;;;14.63;100.00;95067.31;10504471;28;2012;-82
2023/08/05 23:21:55;;;;;;;;;;;;;;;14.65;100.00;95063.19;10517992;28;1940;-82
2023/08/05 23:27:05;;;;;;;;;;;;;;;14.65;100.00;95054.28;10515365;28;2402;-82
2023/08/05 23:32:21;;;;;;;;;;;;;;;14.63;100.00;95060.00;10522985;28;1874;-82
2023/08/05 23:37:28;;;;;;;;;;;;;;;14.60;100.00;95055.22;10521518;28;2044;-82
2023/08/05 23:42:32;;;;;;;;;;;;;;;14.53;100.00;95063.81;10521268;28;4648;-82
2023/08/05 23:47:37;;;;;;;;;;;;;;;14.51;100.00;95066.03;10508982;28;1869;-81
2023/08/05 23:52:45;;;;;;;;;;;;;;;14.60;100.00;95066.84;10521843;28;2294;-81
2023/08/05 23:57:50;;;;;;;;;;;;;;;14.57;100.00;95072.09;10519374;28;2111;-81
